sensor_id;sensor_type;location;lat;lon;timestamp;P1;durP1;ratioP1;P2;durP2;ratioP2
18580;SDS011;9420;50.876;7.012;2023-04-01T00:01:51;1.40;;;0.50;;
18580;SDS011;9420;50.876;7.012;2023-04-01T00:04:18;5.23;;;0.93;;
18580;SDS011;9420;50.876;7.012;2023-04-01T00:06:45;1.23;;;0.37;;
18580;SDS011;9420;50.876;7.012;2023-04-01T00:09:13;2.70;;;0.70;;
18580;SDS011;9420;50.876;7.012;2023-04-01T00:11:42;1.60;;;0.40;;
18580;SDS011;9420;50.876;7.012;2023-04-01T00:14:11;2.90;;;0.50;;
18580;SDS011;9420;50.876;7.012;2023-04-01T00:16:39;1.10;;;0.70;;
18580;SDS011;9420;50.876;7.012;2023-04-01T00:19:06;2.33;;;0.60;;
18580;SDS011;9420;50.876;7.012;2023-04-01T00:21:33;1.30;;;0.40;;
18580;SDS011;9420;50.876;7.012;2023-04-01T00:24:02;2.93;;;0.50;;
18580;SDS011;9420;50.876;7.012;2023-04-01T00:26:29;1.27;;;0.60;;
18580;SDS011;9420;50.876;7.012;2023-04-01T00:28:57;3.00;;;0.60;;
18580;SDS011;9420;50.876;7.012;2023-04-01T00:31:25;1.20;;;0.80;;
18580;SDS011;9420;50.876;7.012;2023-04-01T00:33:53;0.93;;;0.40;;
18580;SDS011;9420;50.876;7.012;2023-04-01T00:36:20;0.60;;;0.40;;
18580;SDS011;9420;50.876;7.012;2023-04-01T00:38:48;0.63;;;0.40;;
18580;SDS011;9420;50.876;7.012;2023-04-01T00:41:17;1.80;;;0.60;;
18580;SDS011;9420;50.876;7.012;2023-04-01T00:43:47;0.87;;;0.23;;
18580;SDS011;9420;50.876;7.012;2023-04-01T00:46:18;0.60;;;0.33;;
18580;SDS011;9420;50.876;7.012;2023-04-01T00:48:47;0.93;;;0.43;;
18580;SDS011;9420;50.876;7.012;2023-04-01T00:51:18;0.90;;;0.50;;
18580;SDS011;9420;50.876;7.012;2023-04-01T00:53:53;2.30;;;0.40;;
18580;SDS011;9420;50.876;7.012;2023-04-01T00:56:22;2.47;;;0.60;;
18580;SDS011;9420;50.876;7.012;2023-04-01T00:58:55;1.20;;;0.60;;
18580;SDS011;9420;50.876;7.012;2023-04-01T01:01:28;0.87;;;0.67;;
18580;SDS011;9420;50.876;7.012;2023-04-01T01:03:57;1.37;;;0.40;;
18580;SDS011;9420;50.876;7.012;2023-04-01T01:06:26;1.00;;;0.53;;
18580;SDS011;9420;50.876;7.012;2023-04-01T01:09:12;0.60;;;0.40;;
18580;SDS011;9420;50.876;7.012;2023-04-01T01:12:00;2.90;;;0.67;;
18580;SDS011;9420;50.876;7.012;2023-04-01T01:14:40;6.20;;;0.87;;
18580;SDS011;9420;50.876;7.012;2023-04-01T01:17:25;2.67;;;0.30;;
18580;SDS011;9420;50.876;7.012;2023-04-01T01:20:14;1.20;;;0.40;;
18580;SDS011;9420;50.876;7.012;2023-04-01T01:23:57;1.33;;;0.27;;
18580;SDS011;9420;50.876;7.012;2023-04-01T01:27:01;1.70;;;0.50;;
18580;SDS011;9420;50.876;7.012;2023-04-01T01:29:41;1.17;;;0.40;;
18580;SDS011;9420;50.876;7.012;2023-04-01T01:35:51;1.53;;;0.47;;
18580;SDS011;9420;50.876;7.012;2023-04-01T01:38:23;0.77;;;0.50;;
18580;SDS011;9420;50.876;7.012;2023-04-01T01:40:57;0.63;;;0.53;;
18580;SDS011;9420;50.876;7.012;2023-04-01T01:43:26;0.53;;;0.30;;
18580;SDS011;9420;50.876;7.012;2023-04-01T01:46:00;0.43;;;0.20;;
18580;SDS011;9420;50.876;7.012;2023-04-01T01:48:34;1.23;;;0.40;;
18580;SDS011;9420;50.876;7.012;2023-04-01T01:51:04;0.83;;;0.20;;
18580;SDS011;9420;50.876;7.012;2023-04-01T01:53:33;0.43;;;0.20;;
18580;SDS011;9420;50.876;7.012;2023-04-01T01:56:00;2.77;;;0.60;;
18580;SDS011;9420;50.876;7.012;2023-04-01T01:58:28;1.60;;;0.73;;
18580;SDS011;9420;50.876;7.012;2023-04-01T02:01:01;1.73;;;0.50;;
18580;SDS011;9420;50.876;7.012;2023-04-01T02:03:35;0.80;;;0.30;;
18580;SDS011;9420;50.876;7.012;2023-04-01T02:06:08;1.77;;;0.77;;
18580;SDS011;9420;50.876;7.012;2023-04-01T02:08:42;2.07;;;0.33;;
18580;SDS011;9420;50.876;7.012;2023-04-01T02:11:16;1.30;;;0.30;;
18580;SDS011;9420;50.876;7.012;2023-04-01T02:13:51;1.10;;;0.40;;
18580;SDS011;9420;50.876;7.012;2023-04-01T02:16:23;4.60;;;0.93;;
18580;SDS011;9420;50.876;7.012;2023-04-01T02:18:55;2.20;;;0.60;;
18580;SDS011;9420;50.876;7.012;2023-04-01T02:21:29;2.87;;;0.97;;
18580;SDS011;9420;50.876;7.012;2023-04-01T02:23:58;1.60;;;0.50;;
18580;SDS011;9420;50.876;7.012;2023-04-01T02:26:31;1.33;;;0.50;;
18580;SDS011;9420;50.876;7.012;2023-04-01T02:28:58;1.00;;;0.47;;
18580;SDS011;9420;50.876;7.012;2023-04-01T02:31:29;0.97;;;0.40;;
18580;SDS011;9420;50.876;7.012;2023-04-01T02:33:58;2.13;;;0.40;;
18580;SDS011;9420;50.876;7.012;2023-04-01T02:36:26;4.63;;;1.10;;
18580;SDS011;9420;50.876;7.012;2023-04-01T02:38:54;1.43;;;0.53;;
18580;SDS011;9420;50.876;7.012;2023-04-01T02:41:27;1.33;;;0.40;;
18580;SDS011;9420;50.876;7.012;2023-04-01T02:43:54;1.97;;;0.60;;
18580;SDS011;9420;50.876;7.012;2023-04-01T02:46:22;1.70;;;0.50;;
18580;SDS011;9420;50.876;7.012;2023-04-01T02:48:49;3.33;;;0.70;;
18580;SDS011;9420;50.876;7.012;2023-04-01T02:51:17;4.10;;;0.70;;
18580;SDS011;9420;50.876;7.012;2023-04-01T02:53:45;3.43;;;0.40;;
18580;SDS011;9420;50.876;7.012;2023-04-01T02:56:12;0.20;;;0.20;;
18580;SDS011;9420;50.876;7.012;2023-04-01T02:58:39;1.07;;;0.30;;
18580;SDS011;9420;50.876;7.012;2023-04-01T03:01:06;1.57;;;0.50;;
18580;SDS011;9420;50.876;7.012;2023-04-01T03:03:33;1.83;;;0.23;;
18580;SDS011;9420;50.876;7.012;2023-04-01T03:06:04;0.30;;;0.30;;
18580;SDS011;9420;50.876;7.012;2023-04-01T03:08:32;1.57;;;0.53;;
18580;SDS011;9420;50.876;7.012;2023-04-01T03:11:00;0.93;;;0.30;;
18580;SDS011;9420;50.876;7.012;2023-04-01T03:13:27;0.60;;;0.27;;
18580;SDS011;9420;50.876;7.012;2023-04-01T03:15:55;0.17;;;0.17;;
18580;SDS011;9420;50.876;7.012;2023-04-01T03:18:22;0.40;;;0.13;;
18580;SDS011;9420;50.876;7.012;2023-04-01T03:20:49;2.17;;;0.40;;
18580;SDS011;9420;50.876;7.012;2023-04-01T03:23:16;1.87;;;0.30;;
18580;SDS011;9420;50.876;7.012;2023-04-01T03:25:44;0.23;;;0.17;;
18580;SDS011;9420;50.876;7.012;2023-04-01T03:28:13;0.97;;;0.60;;
18580;SDS011;9420;50.876;7.012;2023-04-01T03:30:40;0.87;;;0.47;;
18580;SDS011;9420;50.876;7.012;2023-04-01T03:33:07;3.60;;;0.57;;
18580;SDS011;9420;50.876;7.012;2023-04-01T03:35:34;0.93;;;0.30;;
18580;SDS011;9420;50.876;7.012;2023-04-01T03:38:02;1.40;;;0.40;;
18580;SDS011;9420;50.876;7.012;2023-04-01T03:40:29;2.27;;;0.40;;
18580;SDS011;9420;50.876;7.012;2023-04-01T03:42:58;1.47;;;0.37;;
18580;SDS011;9420;50.876;7.012;2023-04-01T03:45:26;0.70;;;0.20;;
18580;SDS011;9420;50.876;7.012;2023-04-01T03:47:53;1.67;;;0.10;;
18580;SDS011;9420;50.876;7.012;2023-04-01T03:50:20;1.70;;;0.50;;
18580;SDS011;9420;50.876;7.012;2023-04-01T03:52:47;2.43;;;0.53;;
18580;SDS011;9420;50.876;7.012;2023-04-01T03:55:14;1.40;;;0.23;;
18580;SDS011;9420;50.876;7.012;2023-04-01T03:57:43;0.63;;;0.40;;
18580;SDS011;9420;50.876;7.012;2023-04-01T04:00:10;2.60;;;0.70;;
18580;SDS011;9420;50.876;7.012;2023-04-01T04:02:40;5.00;;;0.93;;
18580;SDS011;9420;50.876;7.012;2023-04-01T04:05:07;4.53;;;0.57;;
18580;SDS011;9420;50.876;7.012;2023-04-01T04:07:35;0.30;;;0.30;;
18580;SDS011;9420;50.876;7.012;2023-04-01T04:10:02;0.57;;;0.30;;
18580;SDS011;9420;50.876;7.012;2023-04-01T04:12:31;1.10;;;0.60;;
18580;SDS011;9420;50.876;7.012;2023-04-01T04:14:58;1.10;;;0.30;;
18580;SDS011;9420;50.876;7.012;2023-04-01T04:17:25;1.20;;;0.20;;
18580;SDS011;9420;50.876;7.012;2023-04-01T04:19:53;0.43;;;0.20;;
18580;SDS011;9420;50.876;7.012;2023-04-01T04:22:20;0.60;;;0.20;;
18580;SDS011;9420;50.876;7.012;2023-04-01T04:24:47;2.07;;;0.33;;
18580;SDS011;9420;50.876;7.012;2023-04-01T04:27:14;0.33;;;0.20;;
18580;SDS011;9420;50.876;7.012;2023-04-01T04:29:41;0.10;;;0.10;;
18580;SDS011;9420;50.876;7.012;2023-04-01T04:32:09;0.43;;;0.40;;
18580;SDS011;9420;50.876;7.012;2023-04-01T04:34:36;0.10;;;0.10;;
18580;SDS011;9420;50.876;7.012;2023-04-01T04:37:04;1.27;;;0.37;;
18580;SDS011;9420;50.876;7.012;2023-04-01T04:39:31;0.50;;;0.30;;
18580;SDS011;9420;50.876;7.012;2023-04-01T04:41:58;2.07;;;0.10;;
18580;SDS011;9420;50.876;7.012;2023-04-01T04:44:25;0.97;;;0.20;;
18580;SDS011;9420;50.876;7.012;2023-04-01T04:46:52;1.47;;;0.43;;
18580;SDS011;9420;50.876;7.012;2023-04-01T04:49:20;0.43;;;0.30;;
18580;SDS011;9420;50.876;7.012;2023-04-01T04:51:47;1.70;;;0.60;;
18580;SDS011;9420;50.876;7.012;2023-04-01T04:54:16;0.70;;;0.40;;
18580;SDS011;9420;50.876;7.012;2023-04-01T04:56:43;1.13;;;0.37;;
18580;SDS011;9420;50.876;7.012;2023-04-01T04:59:10;1.03;;;0.40;;
18580;SDS011;9420;50.876;7.012;2023-04-01T05:01:37;1.30;;;0.30;;
18580;SDS011;9420;50.876;7.012;2023-04-01T05:04:05;2.30;;;0.60;;
18580;SDS011;9420;50.876;7.012;2023-04-01T05:06:32;1.70;;;0.53;;
18580;SDS011;9420;50.876;7.012;2023-04-01T05:08:59;0.73;;;0.50;;
18580;SDS011;9420;50.876;7.012;2023-04-01T05:11:27;1.90;;;0.40;;
18580;SDS011;9420;50.876;7.012;2023-04-01T05:13:54;0.37;;;0.37;;
18580;SDS011;9420;50.876;7.012;2023-04-01T05:16:21;0.50;;;0.40;;
18580;SDS011;9420;50.876;7.012;2023-04-01T05:18:48;1.07;;;0.40;;
18580;SDS011;9420;50.876;7.012;2023-04-01T05:21:15;1.43;;;0.50;;
18580;SDS011;9420;50.876;7.012;2023-04-01T05:23:42;0.60;;;0.60;;
18580;SDS011;9420;50.876;7.012;2023-04-01T05:26:11;0.90;;;0.70;;
18580;SDS011;9420;50.876;7.012;2023-04-01T05:28:41;0.43;;;0.43;;
18580;SDS011;9420;50.876;7.012;2023-04-01T05:31:09;0.83;;;0.20;;
18580;SDS011;9420;50.876;7.012;2023-04-01T05:33:36;0.50;;;0.50;;
18580;SDS011;9420;50.876;7.012;2023-04-01T05:36:07;0.50;;;0.33;;
18580;SDS011;9420;50.876;7.012;2023-04-01T05:38:36;1.40;;;0.97;;
18580;SDS011;9420;50.876;7.012;2023-04-01T05:41:04;1.80;;;0.30;;
18580;SDS011;9420;50.876;7.012;2023-04-01T05:43:31;0.37;;;0.30;;
18580;SDS011;9420;50.876;7.012;2023-04-01T05:46:03;0.20;;;0.20;;
18580;SDS011;9420;50.876;7.012;2023-04-01T05:48:30;1.53;;;0.10;;
18580;SDS011;9420;50.876;7.012;2023-04-01T05:50:59;0.10;;;0.10;;
18580;SDS011;9420;50.876;7.012;2023-04-01T05:53:26;0.50;;;0.40;;
18580;SDS011;9420;50.876;7.012;2023-04-01T05:55:53;0.10;;;0.10;;
18580;SDS011;9420;50.876;7.012;2023-04-01T05:58:20;0.10;;;0.10;;
18580;SDS011;9420;50.876;7.012;2023-04-01T06:00:47;1.40;;;0.23;;
18580;SDS011;9420;50.876;7.012;2023-04-01T06:03:15;0.17;;;0.10;;
18580;SDS011;9420;50.876;7.012;2023-04-01T06:05:43;0.20;;;0.17;;
18580;SDS011;9420;50.876;7.012;2023-04-01T06:08:11;0.20;;;0.20;;
18580;SDS011;9420;50.876;7.012;2023-04-01T06:10:44;2.07;;;0.20;;
18580;SDS011;9420;50.876;7.012;2023-04-01T06:13:27;0.23;;;0.20;;
18580;SDS011;9420;50.876;7.012;2023-04-01T06:16:15;0.60;;;0.60;;
18580;SDS011;9420;50.876;7.012;2023-04-01T06:18:59;3.20;;;0.57;;
18580;SDS011;9420;50.876;7.012;2023-04-01T06:31:17;0.50;;;0.30;;
18580;SDS011;9420;50.876;7.012;2023-04-01T06:34:08;0.40;;;0.40;;
18580;SDS011;9420;50.876;7.012;2023-04-01T06:37:09;2.17;;;0.50;;
18580;SDS011;9420;50.876;7.012;2023-04-01T06:39:57;0.30;;;0.30;;
18580;SDS011;9420;50.876;7.012;2023-04-01T06:42:50;0.90;;;0.40;;
18580;SDS011;9420;50.876;7.012;2023-04-01T06:45:37;1.90;;;0.70;;
18580;SDS011;9420;50.876;7.012;2023-04-01T06:48:19;1.03;;;0.67;;
18580;SDS011;9420;50.876;7.012;2023-04-01T06:51:09;4.10;;;1.33;;
18580;SDS011;9420;50.876;7.012;2023-04-01T06:53:49;1.47;;;0.60;;
18580;SDS011;9420;50.876;7.012;2023-04-01T06:56:26;3.60;;;0.63;;
18580;SDS011;9420;50.876;7.012;2023-04-01T06:58:56;0.90;;;0.80;;
18580;SDS011;9420;50.876;7.012;2023-04-01T07:01:29;0.97;;;0.57;;
18580;SDS011;9420;50.876;7.012;2023-04-01T07:04:05;3.60;;;1.10;;
18580;SDS011;9420;50.876;7.012;2023-04-01T07:06:43;1.10;;;0.90;;
18580;SDS011;9420;50.876;7.012;2023-04-01T07:09:18;1.23;;;0.90;;
18580;SDS011;9420;50.876;7.012;2023-04-01T07:11:48;4.83;;;0.87;;
18580;SDS011;9420;50.876;7.012;2023-04-01T07:14:22;1.97;;;0.60;;
18580;SDS011;9420;50.876;7.012;2023-04-01T07:16:59;2.27;;;0.97;;
18580;SDS011;9420;50.876;7.012;2023-04-01T07:19:34;0.73;;;0.73;;
18580;SDS011;9420;50.876;7.012;2023-04-01T07:22:17;1.93;;;1.17;;
18580;SDS011;9420;50.876;7.012;2023-04-01T07:24:54;1.23;;;0.90;;
18580;SDS011;9420;50.876;7.012;2023-04-01T07:27:23;0.43;;;0.40;;
18580;SDS011;9420;50.876;7.012;2023-04-01T07:29:51;1.87;;;0.73;;
18580;SDS011;9420;50.876;7.012;2023-04-01T07:32:20;0.80;;;0.53;;
18580;SDS011;9420;50.876;7.012;2023-04-01T07:38:08;1.63;;;0.80;;
18580;SDS011;9420;50.876;7.012;2023-04-01T07:40:47;1.47;;;0.87;;
18580;SDS011;9420;50.876;7.012;2023-04-01T07:43:41;0.80;;;0.80;;
18580;SDS011;9420;50.876;7.012;2023-04-01T07:46:23;1.93;;;0.70;;
18580;SDS011;9420;50.876;7.012;2023-04-01T07:49:10;1.43;;;1.03;;
18580;SDS011;9420;50.876;7.012;2023-04-01T07:51:48;0.90;;;0.57;;
18580;SDS011;9420;50.876;7.012;2023-04-01T07:54:29;0.70;;;0.70;;
18580;SDS011;9420;50.876;7.012;2023-04-01T07:57:08;0.83;;;0.80;;
18580;SDS011;9420;50.876;7.012;2023-04-01T07:59:46;0.80;;;0.70;;
18580;SDS011;9420;50.876;7.012;2023-04-01T08:02:34;0.80;;;0.80;;
18580;SDS011;9420;50.876;7.012;2023-04-01T08:05:22;1.10;;;0.90;;
18580;SDS011;9420;50.876;7.012;2023-04-01T08:07:58;1.20;;;0.80;;
18580;SDS011;9420;50.876;7.012;2023-04-01T08:10:39;1.33;;;1.20;;
18580;SDS011;9420;50.876;7.012;2023-04-01T08:13:18;2.43;;;1.03;;
18580;SDS011;9420;50.876;7.012;2023-04-01T08:16:01;0.90;;;0.80;;
18580;SDS011;9420;50.876;7.012;2023-04-01T08:18:39;2.70;;;1.30;;
18580;SDS011;9420;50.876;7.012;2023-04-01T08:21:19;1.40;;;0.90;;
18580;SDS011;9420;50.876;7.012;2023-04-01T08:23:51;0.80;;;0.70;;
18580;SDS011;9420;50.876;7.012;2023-04-01T08:26:26;1.90;;;0.80;;
18580;SDS011;9420;50.876;7.012;2023-04-01T08:29:06;1.40;;;0.93;;
18580;SDS011;9420;50.876;7.012;2023-04-01T08:31:40;3.60;;;0.93;;
18580;SDS011;9420;50.876;7.012;2023-04-01T08:34:19;1.10;;;0.60;;
18580;SDS011;9420;50.876;7.012;2023-04-01T08:36:51;1.13;;;0.90;;
18580;SDS011;9420;50.876;7.012;2023-04-01T08:39:28;0.97;;;0.80;;
18580;SDS011;9420;50.876;7.012;2023-04-01T08:42:07;1.00;;;0.80;;
18580;SDS011;9420;50.876;7.012;2023-04-01T08:48:48;0.97;;;0.70;;
18580;SDS011;9420;50.876;7.012;2023-04-01T08:51:46;1.50;;;0.80;;
18580;SDS011;9420;50.876;7.012;2023-04-01T08:57:35;2.77;;;0.80;;
18580;SDS011;9420;50.876;7.012;2023-04-01T09:00:20;3.13;;;0.50;;
18580;SDS011;9420;50.876;7.012;2023-04-01T09:06:12;1.03;;;0.80;;
18580;SDS011;9420;50.876;7.012;2023-04-01T09:09:05;2.33;;;0.63;;
18580;SDS011;9420;50.876;7.012;2023-04-01T09:12:08;2.00;;;0.87;;
18580;SDS011;9420;50.876;7.012;2023-04-01T09:15:11;2.17;;;0.70;;
18580;SDS011;9420;50.876;7.012;2023-04-01T09:21:04;0.83;;;0.73;;
18580;SDS011;9420;50.876;7.012;2023-04-01T09:27:37;1.10;;;0.60;;
18580;SDS011;9420;50.876;7.012;2023-04-01T09:33:43;0.63;;;0.63;;
18580;SDS011;9420;50.876;7.012;2023-04-01T09:36:56;0.87;;;0.87;;
18580;SDS011;9420;50.876;7.012;2023-04-01T09:40:15;1.97;;;1.10;;
18580;SDS011;9420;50.876;7.012;2023-04-01T09:42:56;1.27;;;0.97;;
18580;SDS011;9420;50.876;7.012;2023-04-01T09:46:01;5.73;;;1.20;;
18580;SDS011;9420;50.876;7.012;2023-04-01T09:52:04;2.00;;;1.20;;
18580;SDS011;9420;50.876;7.012;2023-04-01T09:58:19;1.60;;;0.80;;
18580;SDS011;9420;50.876;7.012;2023-04-01T10:01:50;1.20;;;0.80;;
18580;SDS011;9420;50.876;7.012;2023-04-01T10:05:08;4.30;;;1.57;;
18580;SDS011;9420;50.876;7.012;2023-04-01T10:08:28;2.30;;;1.03;;
18580;SDS011;9420;50.876;7.012;2023-04-01T10:14:42;6.13;;;1.40;;
18580;SDS011;9420;50.876;7.012;2023-04-01T10:17:50;2.97;;;1.33;;
18580;SDS011;9420;50.876;7.012;2023-04-01T10:21:13;1.53;;;1.13;;
18580;SDS011;9420;50.876;7.012;2023-04-01T10:27:49;2.57;;;1.47;;
18580;SDS011;9420;50.876;7.012;2023-04-01T10:31:09;3.00;;;1.73;;
18580;SDS011;9420;50.876;7.012;2023-04-01T10:34:33;1.40;;;1.30;;
18580;SDS011;9420;50.876;7.012;2023-04-01T10:37:52;1.47;;;1.27;;
18580;SDS011;9420;50.876;7.012;2023-04-01T10:41:16;2.47;;;1.10;;
18580;SDS011;9420;50.876;7.012;2023-04-01T10:44:28;1.53;;;1.20;;
18580;SDS011;9420;50.876;7.012;2023-04-01T10:51:17;2.67;;;0.97;;
18580;SDS011;9420;50.876;7.012;2023-04-01T10:57:39;2.47;;;1.57;;
18580;SDS011;9420;50.876;7.012;2023-04-01T11:00:54;3.97;;;1.50;;
18580;SDS011;9420;50.876;7.012;2023-04-01T11:06:53;4.57;;;1.70;;
18580;SDS011;9420;50.876;7.012;2023-04-01T11:13:43;3.53;;;1.73;;
18580;SDS011;9420;50.876;7.012;2023-04-01T11:16:49;1.23;;;1.13;;
18580;SDS011;9420;50.876;7.012;2023-04-01T11:20:01;2.20;;;1.30;;
18580;SDS011;9420;50.876;7.012;2023-04-01T11:23:09;5.30;;;1.10;;
18580;SDS011;9420;50.876;7.012;2023-04-01T11:26:09;1.43;;;1.00;;
18580;SDS011;9420;50.876;7.012;2023-04-01T11:29:03;2.50;;;1.10;;
18580;SDS011;9420;50.876;7.012;2023-04-01T11:32:07;2.57;;;1.30;;
18580;SDS011;9420;50.876;7.012;2023-04-01T11:34:55;2.93;;;1.60;;
18580;SDS011;9420;50.876;7.012;2023-04-01T11:37:46;3.87;;;1.57;;
18580;SDS011;9420;50.876;7.012;2023-04-01T11:40:27;1.90;;;0.83;;
18580;SDS011;9420;50.876;7.012;2023-04-01T11:43:09;1.33;;;1.23;;
18580;SDS011;9420;50.876;7.012;2023-04-01T11:45:48;3.77;;;1.60;;
18580;SDS011;9420;50.876;7.012;2023-04-01T11:48:32;3.83;;;1.83;;
18580;SDS011;9420;50.876;7.012;2023-04-01T11:54:28;2.57;;;1.67;;
18580;SDS011;9420;50.876;7.012;2023-04-01T12:08:15;3.33;;;1.80;;
18580;SDS011;9420;50.876;7.012;2023-04-01T12:11:00;1.40;;;1.17;;
18580;SDS011;9420;50.876;7.012;2023-04-01T12:13:43;1.40;;;1.27;;
18580;SDS011;9420;50.876;7.012;2023-04-01T12:16:23;4.30;;;1.33;;
18580;SDS011;9420;50.876;7.012;2023-04-01T12:19:14;4.40;;;1.93;;
18580;SDS011;9420;50.876;7.012;2023-04-01T12:21:58;1.87;;;1.37;;
18580;SDS011;9420;50.876;7.012;2023-04-01T12:24:55;2.23;;;1.00;;
18580;SDS011;9420;50.876;7.012;2023-04-01T12:27:45;2.03;;;1.17;;
18580;SDS011;9420;50.876;7.012;2023-04-01T12:30:36;2.10;;;1.17;;
18580;SDS011;9420;50.876;7.012;2023-04-01T12:33:23;2.90;;;1.87;;
18580;SDS011;9420;50.876;7.012;2023-04-01T12:42:14;3.13;;;2.17;;
18580;SDS011;9420;50.876;7.012;2023-04-01T12:45:07;5.17;;;1.70;;
18580;SDS011;9420;50.876;7.012;2023-04-01T12:48:00;3.33;;;0.83;;
18580;SDS011;9420;50.876;7.012;2023-04-01T12:51:08;3.77;;;1.60;;
18580;SDS011;9420;50.876;7.012;2023-04-01T12:57:21;3.20;;;2.00;;
18580;SDS011;9420;50.876;7.012;2023-04-01T13:00:23;3.80;;;1.60;;
18580;SDS011;9420;50.876;7.012;2023-04-01T13:03:18;4.00;;;2.13;;
18580;SDS011;9420;50.876;7.012;2023-04-01T13:06:20;6.13;;;1.97;;
18580;SDS011;9420;50.876;7.012;2023-04-01T13:09:01;3.60;;;2.40;;
18580;SDS011;9420;50.876;7.012;2023-04-01T13:11:50;3.13;;;1.83;;
18580;SDS011;9420;50.876;7.012;2023-04-01T13:14:51;2.17;;;1.87;;
18580;SDS011;9420;50.876;7.012;2023-04-01T13:17:48;2.30;;;1.80;;
18580;SDS011;9420;50.876;7.012;2023-04-01T13:20:29;1.20;;;1.10;;
18580;SDS011;9420;50.876;7.012;2023-04-01T13:23:11;2.33;;;1.10;;
18580;SDS011;9420;50.876;7.012;2023-04-01T13:26:00;2.60;;;1.53;;
18580;SDS011;9420;50.876;7.012;2023-04-01T13:28:47;4.40;;;1.57;;
18580;SDS011;9420;50.876;7.012;2023-04-01T13:31:26;2.60;;;2.13;;
18580;SDS011;9420;50.876;7.012;2023-04-01T13:34:22;3.23;;;1.63;;
18580;SDS011;9420;50.876;7.012;2023-04-01T13:37:12;3.57;;;1.83;;
18580;SDS011;9420;50.876;7.012;2023-04-01T13:40:11;2.00;;;1.80;;
18580;SDS011;9420;50.876;7.012;2023-04-01T13:43:01;1.67;;;1.57;;
18580;SDS011;9420;50.876;7.012;2023-04-01T13:45:42;3.03;;;1.43;;
18580;SDS011;9420;50.876;7.012;2023-04-01T13:48:35;2.97;;;1.47;;
18580;SDS011;9420;50.876;7.012;2023-04-01T13:51:33;1.10;;;0.97;;
18580;SDS011;9420;50.876;7.012;2023-04-01T13:54:31;1.30;;;1.20;;
18580;SDS011;9420;50.876;7.012;2023-04-01T13:57:27;3.67;;;1.73;;
18580;SDS011;9420;50.876;7.012;2023-04-01T14:00:23;3.00;;;1.73;;
18580;SDS011;9420;50.876;7.012;2023-04-01T14:06:05;3.27;;;1.80;;
18580;SDS011;9420;50.876;7.012;2023-04-01T14:08:55;1.60;;;1.50;;
18580;SDS011;9420;50.876;7.012;2023-04-01T14:12:02;1.13;;;1.03;;
18580;SDS011;9420;50.876;7.012;2023-04-01T14:14:46;1.63;;;1.37;;
18580;SDS011;9420;50.876;7.012;2023-04-01T14:17:39;1.70;;;1.23;;
18580;SDS011;9420;50.876;7.012;2023-04-01T14:20:25;0.93;;;0.83;;
18580;SDS011;9420;50.876;7.012;2023-04-01T14:23:06;1.37;;;1.27;;
18580;SDS011;9420;50.876;7.012;2023-04-01T14:26:10;1.23;;;1.10;;
18580;SDS011;9420;50.876;7.012;2023-04-01T14:29:23;1.53;;;1.37;;
18580;SDS011;9420;50.876;7.012;2023-04-01T14:32:06;2.13;;;1.20;;
18580;SDS011;9420;50.876;7.012;2023-04-01T14:34:53;1.60;;;1.33;;
18580;SDS011;9420;50.876;7.012;2023-04-01T14:37:54;1.50;;;1.40;;
18580;SDS011;9420;50.876;7.012;2023-04-01T14:46:41;1.47;;;1.37;;
18580;SDS011;9420;50.876;7.012;2023-04-01T14:49:42;1.20;;;1.10;;
18580;SDS011;9420;50.876;7.012;2023-04-01T14:52:15;1.40;;;0.80;;
18580;SDS011;9420;50.876;7.012;2023-04-01T14:54:54;1.23;;;1.07;;
18580;SDS011;9420;50.876;7.012;2023-04-01T14:57:24;2.90;;;0.70;;
18580;SDS011;9420;50.876;7.012;2023-04-01T14:59:59;1.73;;;0.80;;
18580;SDS011;9420;50.876;7.012;2023-04-01T15:02:50;1.60;;;1.23;;
18580;SDS011;9420;50.876;7.012;2023-04-01T15:05:32;1.30;;;1.00;;
18580;SDS011;9420;50.876;7.012;2023-04-01T15:08:17;2.30;;;0.90;;
18580;SDS011;9420;50.876;7.012;2023-04-01T15:14:01;1.17;;;1.00;;
18580;SDS011;9420;50.876;7.012;2023-04-01T15:16:53;2.53;;;0.87;;
18580;SDS011;9420;50.876;7.012;2023-04-01T15:19:37;1.80;;;0.90;;
18580;SDS011;9420;50.876;7.012;2023-04-01T15:22:29;1.03;;;0.93;;
18580;SDS011;9420;50.876;7.012;2023-04-01T15:25:22;1.43;;;1.07;;
18580;SDS011;9420;50.876;7.012;2023-04-01T15:28:16;1.97;;;1.27;;
18580;SDS011;9420;50.876;7.012;2023-04-01T15:30:57;1.70;;;1.40;;
18580;SDS011;9420;50.876;7.012;2023-04-01T15:33:43;2.83;;;1.70;;
18580;SDS011;9420;50.876;7.012;2023-04-01T15:36:27;1.70;;;1.17;;
18580;SDS011;9420;50.876;7.012;2023-04-01T15:39:13;3.33;;;1.17;;
18580;SDS011;9420;50.876;7.012;2023-04-01T15:41:50;1.20;;;1.10;;
18580;SDS011;9420;50.876;7.012;2023-04-01T15:44:42;1.40;;;1.30;;
18580;SDS011;9420;50.876;7.012;2023-04-01T15:47:32;1.90;;;1.30;;
18580;SDS011;9420;50.876;7.012;2023-04-01T15:53:27;1.70;;;1.50;;
18580;SDS011;9420;50.876;7.012;2023-04-01T15:56:16;1.67;;;1.50;;
18580;SDS011;9420;50.876;7.012;2023-04-01T15:59:13;1.60;;;1.50;;
18580;SDS011;9420;50.876;7.012;2023-04-01T16:02:10;2.40;;;1.80;;
18580;SDS011;9420;50.876;7.012;2023-04-01T16:04:48;2.27;;;2.07;;
18580;SDS011;9420;50.876;7.012;2023-04-01T16:07:28;1.80;;;1.70;;
18580;SDS011;9420;50.876;7.012;2023-04-01T16:10:19;2.17;;;1.33;;
18580;SDS011;9420;50.876;7.012;2023-04-01T16:13:01;3.73;;;1.80;;
18580;SDS011;9420;50.876;7.012;2023-04-01T16:15:50;1.60;;;1.50;;
18580;SDS011;9420;50.876;7.012;2023-04-01T16:18:34;1.40;;;1.30;;
18580;SDS011;9420;50.876;7.012;2023-04-01T16:21:33;2.20;;;2.00;;
18580;SDS011;9420;50.876;7.012;2023-04-01T16:24:12;2.17;;;1.97;;
18580;SDS011;9420;50.876;7.012;2023-04-01T16:26:50;2.03;;;1.90;;
18580;SDS011;9420;50.876;7.012;2023-04-01T16:29:27;3.13;;;2.40;;
18580;SDS011;9420;50.876;7.012;2023-04-01T16:38:12;2.70;;;1.63;;
18580;SDS011;9420;50.876;7.012;2023-04-01T16:40:52;3.23;;;1.70;;
18580;SDS011;9420;50.876;7.012;2023-04-01T16:43:38;2.17;;;1.70;;
18580;SDS011;9420;50.876;7.012;2023-04-01T16:46:20;1.70;;;1.50;;
18580;SDS011;9420;50.876;7.012;2023-04-01T16:49:03;1.50;;;1.40;;
18580;SDS011;9420;50.876;7.012;2023-04-01T16:51:54;1.97;;;1.43;;
18580;SDS011;9420;50.876;7.012;2023-04-01T16:54:39;1.83;;;1.70;;
18580;SDS011;9420;50.876;7.012;2023-04-01T16:57:21;1.93;;;1.40;;
18580;SDS011;9420;50.876;7.012;2023-04-01T16:59:57;1.40;;;1.30;;
18580;SDS011;9420;50.876;7.012;2023-04-01T17:02:43;2.07;;;1.57;;
18580;SDS011;9420;50.876;7.012;2023-04-01T17:05:19;1.97;;;1.47;;
18580;SDS011;9420;50.876;7.012;2023-04-01T17:08:07;1.97;;;1.70;;
18580;SDS011;9420;50.876;7.012;2023-04-01T17:10:56;1.37;;;1.27;;
18580;SDS011;9420;50.876;7.012;2023-04-01T17:13:31;2.93;;;1.87;;
18580;SDS011;9420;50.876;7.012;2023-04-01T17:16:12;6.23;;;2.10;;
18580;SDS011;9420;50.876;7.012;2023-04-01T17:19:09;3.67;;;2.00;;
18580;SDS011;9420;50.876;7.012;2023-04-01T17:21:56;2.67;;;2.40;;
18580;SDS011;9420;50.876;7.012;2023-04-01T17:24:36;2.13;;;1.70;;
18580;SDS011;9420;50.876;7.012;2023-04-01T17:27:25;1.53;;;1.37;;
18580;SDS011;9420;50.876;7.012;2023-04-01T17:30:14;2.17;;;1.77;;
18580;SDS011;9420;50.876;7.012;2023-04-01T17:35:57;1.97;;;1.67;;
18580;SDS011;9420;50.876;7.012;2023-04-01T17:38:39;1.40;;;1.30;;
18580;SDS011;9420;50.876;7.012;2023-04-01T17:41:28;2.20;;;1.40;;
18580;SDS011;9420;50.876;7.012;2023-04-01T17:44:13;1.73;;;1.27;;
18580;SDS011;9420;50.876;7.012;2023-04-01T17:50:02;2.10;;;1.80;;
18580;SDS011;9420;50.876;7.012;2023-04-01T17:52:47;3.73;;;2.27;;
18580;SDS011;9420;50.876;7.012;2023-04-01T17:58:42;3.43;;;2.90;;
18580;SDS011;9420;50.876;7.012;2023-04-01T18:04:22;5.27;;;2.90;;
18580;SDS011;9420;50.876;7.012;2023-04-01T18:07:27;2.40;;;2.20;;
18580;SDS011;9420;50.876;7.012;2023-04-01T18:10:31;5.23;;;2.50;;
18580;SDS011;9420;50.876;7.012;2023-04-01T18:16:47;4.40;;;2.83;;
18580;SDS011;9420;50.876;7.012;2023-04-01T18:19:33;2.57;;;2.37;;
18580;SDS011;9420;50.876;7.012;2023-04-01T18:22:19;3.90;;;3.30;;
18580;SDS011;9420;50.876;7.012;2023-04-01T18:24:54;2.90;;;2.63;;
18580;SDS011;9420;50.876;7.012;2023-04-01T18:27:32;3.67;;;2.90;;
18580;SDS011;9420;50.876;7.012;2023-04-01T18:30:07;2.47;;;2.27;;